BAW616 EGKK-EGNS
Flight info
| Callsign | BAW616 |
|---|---|
| Flight time | N/A |
| Altitude | 34000 |
| Route | LAM L10 BPK UN601 LESTA UP6 RODOL UL28 AGLIL M146 LUSOD DCT IOM |
| Aircraft | A20N/M-SDE2E3FGHIRWXY/LB1 |
Departure
| Time | N/A |
|---|---|
| Airport | London Gatwick Airport (EGKK) |
Arrival
| Time | 2026-05-07 18:37 |
|---|---|
| Airport | Isle of Man Airport (EGNS) |
| Time | Latitude | Longitude | Altitude | Speed | Heading |
|---|---|---|---|---|---|
| 2026-05-07 18:02 | 52.54284 | -0.87504 | 27984 ft | 496 kts | 327° |
| 2026-05-07 18:02 | 52.57140 | -0.90331 | 27981 ft | 496 kts | 327° |
| 2026-05-07 18:02 | 52.59989 | -0.93151 | 27979 ft | 473 kts | 327° |
| 2026-05-07 18:03 | 52.62740 | -0.95877 | 27971 ft | 452 kts | 327° |
| 2026-05-07 18:03 | 52.65376 | -0.98496 | 27971 ft | 433 kts | 327° |
| 2026-05-07 18:03 | 52.67926 | -1.01036 | 27979 ft | 426 kts | 327° |
| 2026-05-07 18:03 | 52.70396 | -1.03500 | 27973 ft | 422 kts | 327° |
| 2026-05-07 18:04 | 52.72877 | -1.06025 | 27970 ft | 417 kts | 323° |
| 2026-05-07 18:04 | 52.75160 | -1.08913 | 27973 ft | 411 kts | 316° |
| 2026-05-07 18:04 | 52.77227 | -1.12135 | 27972 ft | 407 kts | 314° |
| 2026-05-07 18:04 | 52.79268 | -1.15342 | 27973 ft | 404 kts | 315° |
| 2026-05-07 18:05 | 52.81302 | -1.18519 | 27973 ft | 401 kts | 315° |
| 2026-05-07 18:05 | 52.83295 | -1.21633 | 27973 ft | 398 kts | 315° |
| 2026-05-07 18:05 | 52.85294 | -1.24767 | 27973 ft | 395 kts | 314° |
| 2026-05-07 18:05 | 52.87281 | -1.27891 | 27972 ft | 392 kts | 314° |
| 2026-05-07 18:06 | 52.89250 | -1.30995 | 27971 ft | 390 kts | 314° |
| 2026-05-07 18:06 | 52.91207 | -1.34084 | 27972 ft | 388 kts | 314° |
| 2026-05-07 18:06 | 52.93153 | -1.37160 | 27973 ft | 385 kts | 314° |
| 2026-05-07 18:06 | 52.95088 | -1.40222 | 27973 ft | 383 kts | 314° |
| 2026-05-07 18:07 | 52.97008 | -1.43264 | 27972 ft | 382 kts | 314° |
| 2026-05-07 18:07 | 52.98960 | -1.46366 | 27974 ft | 395 kts | 314° |
| 2026-05-07 18:07 | 53.00978 | -1.49577 | 27974 ft | 409 kts | 314° |
| 2026-05-07 18:07 | 53.03068 | -1.52905 | 27985 ft | 423 kts | 314° |
| 2026-05-07 18:08 | 53.05190 | -1.56286 | 27973 ft | 435 kts | 314° |
| 2026-05-07 18:08 | 53.07397 | -1.59806 | 27972 ft | 441 kts | 314° |
| 2026-05-07 18:08 | 53.09606 | -1.63334 | 27969 ft | 440 kts | 314° |
| 2026-05-07 18:08 | 53.11808 | -1.66860 | 27970 ft | 440 kts | 314° |
| 2026-05-07 18:09 | 53.14011 | -1.70395 | 27971 ft | 440 kts | 314° |
| 2026-05-07 18:09 | 53.16203 | -1.73920 | 27973 ft | 439 kts | 314° |
| 2026-05-07 18:09 | 53.18409 | -1.77471 | 27974 ft | 439 kts | 314° |
| 2026-05-07 18:09 | 53.20603 | -1.81009 | 27972 ft | 439 kts | 314° |
| 2026-05-07 18:10 | 53.22593 | -1.84574 | 27970 ft | 438 kts | 307° |
| 2026-05-07 18:10 | 53.24361 | -1.88623 | 27971 ft | 437 kts | 300° |
| 2026-05-07 18:10 | 53.25851 | -1.93048 | 27971 ft | 439 kts | 294° |
| 2026-05-07 18:10 | 53.27204 | -1.97633 | 27971 ft | 438 kts | 294° |
| 2026-05-07 18:11 | 53.28565 | -2.02181 | 27972 ft | 438 kts | 294° |
| 2026-05-07 18:11 | 53.29471 | -2.05207 | 27983 ft | 438 kts | 294° |
| 2026-05-07 18:11 | 53.31281 | -2.11269 | 27969 ft | 434 kts | 294° |
| 2026-05-07 18:11 | 53.32624 | -2.15793 | 27973 ft | 435 kts | 294° |
| 2026-05-07 18:12 | 53.33909 | -2.20133 | 27973 ft | 435 kts | 294° |
| 2026-05-07 18:12 | 53.35237 | -2.24679 | 27970 ft | 434 kts | 292° |
| 2026-05-07 18:12 | 53.36318 | -2.29385 | 27976 ft | 432 kts | 285° |
| 2026-05-07 18:12 | 53.37218 | -2.34187 | 27973 ft | 433 kts | 285° |
| 2026-05-07 18:13 | 53.38104 | -2.38841 | 27977 ft | 432 kts | 285° |
| 2026-05-07 18:13 | 53.39021 | -2.43640 | 27969 ft | 432 kts | 285° |
| 2026-05-07 18:13 | 53.39935 | -2.48436 | 27972 ft | 432 kts | 285° |
| 2026-05-07 18:13 | 53.40846 | -2.53235 | 27969 ft | 432 kts | 285° |
| 2026-05-07 18:14 | 53.41754 | -2.58034 | 27976 ft | 432 kts | 285° |
| 2026-05-07 18:14 | 53.42644 | -2.62755 | 27965 ft | 427 kts | 285° |
| 2026-05-07 18:14 | 53.43548 | -2.67564 | 27961 ft | 428 kts | 285° |
| 2026-05-07 18:14 | 53.44427 | -2.72261 | 27952 ft | 429 kts | 285° |
| 2026-05-07 18:15 | 53.45318 | -2.77031 | 27954 ft | 428 kts | 285° |
| 2026-05-07 18:15 | 53.46208 | -2.81804 | 27949 ft | 428 kts | 285° |
| 2026-05-07 18:15 | 53.47096 | -2.86579 | 27948 ft | 428 kts | 285° |
| 2026-05-07 18:15 | 53.47981 | -2.91348 | 27953 ft | 428 kts | 285° |
| 2026-05-07 18:16 | 53.48863 | -2.96115 | 27952 ft | 428 kts | 285° |
| 2026-05-07 18:16 | 53.49745 | -3.00890 | 27946 ft | 428 kts | 285° |
| 2026-05-07 18:16 | 53.50625 | -3.05669 | 27949 ft | 428 kts | 285° |
| 2026-05-07 18:16 | 53.51505 | -3.10454 | 27958 ft | 428 kts | 284° |
| 2026-05-07 18:17 | 53.52376 | -3.15206 | 27941 ft | 423 kts | 284° |
| 2026-05-07 18:17 | 53.53238 | -3.19919 | 27667 ft | 421 kts | 284° |
| 2026-05-07 18:17 | 53.54082 | -3.24544 | 27164 ft | 418 kts | 284° |
| 2026-05-07 18:17 | 53.54914 | -3.29119 | 26632 ft | 413 kts | 284° |
| 2026-05-07 18:18 | 53.55739 | -3.33666 | 26420 ft | 398 kts | 284° |
| 2026-05-07 18:18 | 53.56527 | -3.38006 | 26217 ft | 377 kts | 284° |
| 2026-05-07 18:18 | 53.57297 | -3.42105 | 26031 ft | 359 kts | 288° |
| 2026-05-07 18:18 | 53.58282 | -3.45852 | 25828 ft | 343 kts | 295° |
| 2026-05-07 18:19 | 53.59500 | -3.49262 | 25310 ft | 339 kts | 302° |
| 2026-05-07 18:19 | 53.60868 | -3.52476 | 24713 ft | 336 kts | 302° |
| 2026-05-07 18:19 | 53.62212 | -3.55659 | 24123 ft | 332 kts | 302° |
| 2026-05-07 18:19 | 53.63539 | -3.58818 | 23560 ft | 328 kts | 302° |
| 2026-05-07 18:20 | 53.64833 | -3.61905 | 22906 ft | 325 kts | 302° |
| 2026-05-07 18:20 | 53.66133 | -3.65010 | 22245 ft | 323 kts | 302° |
| 2026-05-07 18:20 | 53.67423 | -3.68090 | 21596 ft | 320 kts | 302° |
| 2026-05-07 18:20 | 53.68698 | -3.71140 | 20998 ft | 318 kts | 302° |
| 2026-05-07 18:21 | 53.69955 | -3.74146 | 20386 ft | 315 kts | 302° |
| 2026-05-07 18:21 | 53.71218 | -3.77171 | 19776 ft | 313 kts | 301° |
| 2026-05-07 18:21 | 53.72467 | -3.80171 | 19188 ft | 311 kts | 301° |
| 2026-05-07 18:21 | 53.73708 | -3.83154 | 18624 ft | 309 kts | 301° |
| 2026-05-07 18:22 | 53.74938 | -3.86113 | 18028 ft | 307 kts | 301° |
| 2026-05-07 18:22 | 53.75751 | -3.88070 | 17626 ft | 305 kts | 301° |
| 2026-05-07 18:22 | 53.77371 | -3.91976 | 16842 ft | 301 kts | 301° |
| 2026-05-07 18:22 | 53.78567 | -3.94863 | 16259 ft | 299 kts | 301° |
| 2026-05-07 18:23 | 53.79735 | -3.97686 | 15699 ft | 296 kts | 301° |
| 2026-05-07 18:23 | 53.80914 | -4.00538 | 15137 ft | 294 kts | 301° |
| 2026-05-07 18:23 | 53.82078 | -4.03358 | 14591 ft | 291 kts | 301° |
| 2026-05-07 18:23 | 53.83233 | -4.06157 | 14056 ft | 289 kts | 301° |
| 2026-05-07 18:24 | 53.84380 | -4.08941 | 13484 ft | 287 kts | 301° |
| 2026-05-07 18:24 | 53.85508 | -4.11681 | 13110 ft | 277 kts | 301° |
| 2026-05-07 18:24 | 53.86517 | -4.14125 | 12946 ft | 262 kts | 301° |
| 2026-05-07 18:24 | 53.87542 | -4.16616 | 12533 ft | 256 kts | 301° |
| 2026-05-07 18:25 | 53.88550 | -4.19081 | 12012 ft | 254 kts | 301° |
| 2026-05-07 18:25 | 53.89547 | -4.21529 | 11583 ft | 250 kts | 301° |
| 2026-05-07 18:25 | 53.90528 | -4.23941 | 11102 ft | 248 kts | 301° |
| 2026-05-07 18:25 | 53.91217 | -4.26502 | 10593 ft | 240 kts | 280° |
| 2026-05-07 18:26 | 53.91570 | -4.29232 | 10118 ft | 239 kts | 279° |
| 2026-05-07 18:26 | 53.91908 | -4.31961 | 9657 ft | 235 kts | 279° |
| 2026-05-07 18:26 | 53.92240 | -4.34664 | 9079 ft | 234 kts | 279° |
| 2026-05-07 18:26 | 53.92575 | -4.37354 | 8535 ft | 233 kts | 279° |
| 2026-05-07 18:27 | 53.92913 | -4.40043 | 7982 ft | 232 kts | 279° |
| 2026-05-07 18:27 | 53.93252 | -4.42711 | 7487 ft | 231 kts | 279° |
| 2026-05-07 18:27 | 53.93597 | -4.45365 | 6977 ft | 230 kts | 279° |
| 2026-05-07 18:27 | 53.93946 | -4.48013 | 6476 ft | 230 kts | 279° |
| 2026-05-07 18:28 | 53.94293 | -4.50650 | 5976 ft | 228 kts | 279° |
| 2026-05-07 18:28 | 53.94633 | -4.53231 | 5510 ft | 226 kts | 279° |
| 2026-05-07 18:28 | 53.94973 | -4.55817 | 5059 ft | 223 kts | 279° |
| 2026-05-07 18:28 | 53.95306 | -4.58373 | 4596 ft | 221 kts | 279° |
| 2026-05-07 18:29 | 53.95667 | -4.60904 | 4108 ft | 222 kts | 288° |
| 2026-05-07 18:29 | 53.96601 | -4.62999 | 3616 ft | 228 kts | 322° |
| 2026-05-07 18:29 | 53.98088 | -4.63931 | 3183 ft | 231 kts | 356° |
| 2026-05-07 18:29 | 53.99608 | -4.63354 | 2868 ft | 225 kts | 31° |
| 2026-05-07 18:30 | 54.00684 | -4.61515 | 2441 ft | 220 kts | 66° |
| 2026-05-07 18:30 | 54.01030 | -4.59074 | 2204 ft | 212 kts | 88° |
| 2026-05-07 18:30 | 54.01171 | -4.56514 | 2111 ft | 217 kts | 89° |
| 2026-05-07 18:30 | 54.01307 | -4.53979 | 2063 ft | 212 kts | 89° |
| 2026-05-07 18:31 | 54.01442 | -4.51459 | 2001 ft | 215 kts | 89° |
| 2026-05-07 18:31 | 54.01577 | -4.48943 | 2002 ft | 212 kts | 89° |
| 2026-05-07 18:31 | 54.01711 | -4.46447 | 2005 ft | 213 kts | 89° |
| 2026-05-07 18:31 | 54.01836 | -4.43978 | 1999 ft | 212 kts | 89° |
| 2026-05-07 18:32 | 54.01969 | -4.41472 | 2001 ft | 213 kts | 86° |
| 2026-05-07 18:32 | 54.02478 | -4.39105 | 2005 ft | 218 kts | 56° |
| 2026-05-07 18:32 | 54.03665 | -4.37548 | 2004 ft | 218 kts | 19° |
| 2026-05-07 18:32 | 54.05159 | -4.37200 | 2001 ft | 213 kts | 359° |
| 2026-05-07 18:33 | 54.06569 | -4.37106 | 1999 ft | 196 kts | 359° |
| 2026-05-07 18:33 | 54.07934 | -4.37014 | 2002 ft | 197 kts | 359° |
| 2026-05-07 18:33 | 54.09158 | -4.37294 | 2004 ft | 192 kts | 330° |
| 2026-05-07 18:33 | 54.10124 | -4.38725 | 2005 ft | 182 kts | 298° |
| 2026-05-07 18:34 | 54.10643 | -4.40626 | 2001 ft | 174 kts | 278° |
| 2026-05-07 18:34 | 54.10743 | -4.42640 | 2000 ft | 169 kts | 261° |
| 2026-05-07 18:34 | 54.10586 | -4.44606 | 2001 ft | 167 kts | 255° |
| 2026-05-07 18:34 | 54.10342 | -4.46540 | 1852 ft | 167 kts | 253° |
| 2026-05-07 18:35 | 54.10104 | -4.48438 | 1641 ft | 161 kts | 253° |
| 2026-05-07 18:35 | 54.09859 | -4.50342 | 1397 ft | 167 kts | 253° |
| 2026-05-07 18:35 | 54.09616 | -4.52265 | 1160 ft | 169 kts | 253° |
| 2026-05-07 18:35 | 54.09365 | -4.54238 | 919 ft | 173 kts | 253° |
| 2026-05-07 18:36 | 54.09108 | -4.56273 | 681 ft | 180 kts | 253° |
| 2026-05-07 18:36 | 54.08848 | -4.58320 | 432 ft | 174 kts | 253° |
| 2026-05-07 18:36 | 54.08599 | -4.60254 | 200 ft | 160 kts | 254° |
| 2026-05-07 18:36 | 54.08364 | -4.62069 | 37 ft | 151 kts | 256° |
| 2026-05-07 18:37 | 54.08234 | -4.63126 | 37 ft | 29 kts | 258° |
| 2026-05-07 18:37 | 54.08243 | -4.63314 | 34 ft | 11 kts | 330° |
| 2026-05-07 18:37 | 54.08318 | -4.63348 | 35 ft | 0 kts | 344° |
| 2026-05-07 18:38 | 54.08325 | -4.63351 | 36 ft | 3 kts | 344° |
| 2026-05-07 18:38 | 54.08358 | -4.63367 | 36 ft | 7 kts | 344° |
| 2026-05-07 18:38 | 54.08424 | -4.63389 | 36 ft | 12 kts | 360° |
| 2026-05-07 18:39 | 54.08505 | -4.63334 | 35 ft | 11 kts | 17° |
| 2026-05-07 18:39 | 54.08570 | -4.63405 | 35 ft | 8 kts | 330° |
| 2026-05-07 18:39 | 54.08606 | -4.63380 | 35 ft | 4 kts | 43° |
| 2026-05-07 18:39 | 54.08609 | -4.63376 | 35 ft | 0 kts | 42° |
| 2026-05-07 18:40 | 54.08610 | -4.63373 | 35 ft | 0 kts | 42° |